Nearby METAR Reports



KADS - Dallas/Addison, Texas, USA
Distance from station: SSW 10mi, 16km
Updated: Mon, 18-Jan-2021 3:35am CST
Clear
Clear
 Wind from SE
Wind: SE 6 mph , 9 km/h
Temperature: 37°F , 3°C
Wind Chill: 32°F , 0°C
Dew Point: 25°F , -4°C
Humidity: 60%
Barometer: 30.06 inHg , 1017.9 hPa
Clouds: Clear
Visibility: 10 miles , 16 km
2021/01/18 09:35 KADS 180935Z AUTO 14005KT 10SM CLR 03/M04 A3006 RMK AO2 T00331038
KTKI - Mckinney, Texas, USA
Distance from station: ENE 11mi, 18km
Updated: Mon, 18-Jan-2021 3:53am CST
Clear
Clear
 Wind from calm
Wind: Calm
Temperature: 32°F , 0°C
Dew Point: 25°F , -4°C
Humidity: 75%
Barometer: 30.05 inHg , 1017.6 hPa
Clouds: Clear
Visibility: 10 miles , 16 km
2021/01/18 09:53 KTKI 180953Z AUTO 00000KT 10SM CLR 00/M04 A3005 RMK AO2 SLP185 T00001044
 
KDAL - Dallas/Love Fld, Texas, USA
Distance from station: SSW 18mi, 30km
Updated: Mon, 18-Jan-2021 3:53am CST
Clear
Clear
 Wind from SE
Wind: SE 5 mph , 7 km/h
Temperature: 37°F , 3°C
Wind Chill: 33°F , 1°C
Dew Point: 27°F , -3°C
Humidity: 65%
Barometer: 30.05 inHg , 1017.6 hPa
Clouds: Clear
Visibility: 10 miles , 16 km
2021/01/18 09:53 KDAL 180953Z 14004KT 10SM CLR 03/M03 A3005 RMK AO2 SLP173 T00281033 $
KDFW - Dallas/Ft Worth, Texas, USA
Distance from station: SW 21mi, 34km
Updated: Mon, 18-Jan-2021 3:53am CST
Clear
Clear
 Wind from S
Wind: S 3 mph , 6 km/h
Temperature: 36°F , 2°C
Dew Point: 25°F , -4°C
Humidity: 65%
Barometer: 30.03 inHg , 1016.9 hPa
Clouds: Clear
Visibility: 10 miles , 16 km
2021/01/18 09:53 KDFW 180953Z 18003KT 10SM CLR 02/M04 A3003 RMK AO2 SLP167 T00221039
 
KF46 - Rockwall, Texas, USA
Distance from station: ESE 22mi, 35km
Updated: Mon, 18-Jan-2021 4:15am CST
Clear
Clear
 Wind from S
Wind: S 8 mph , 13 km/h
Temperature: 41°F , 5°C
Wind Chill: 36°F , 2°C
Dew Point: 27°F , -3°C
Humidity: 57%
Barometer: 30.05 inHg , 1017.6 hPa
Clouds: Clear
Visibility: 10 miles , 16 km
2021/01/18 10:15 KF46 181015Z AUTO 17007KT 10SM CLR 05/M03 A3005 RMK AO2 T00491035
KDTO - Denton, Texas, USA
Distance from station: WNW 27mi, 43km
Updated: Mon, 18-Jan-2021 3:53am CST
Clear
Clear
 Wind from calm
Wind: Calm
Temperature: 27°F , -3°C
Dew Point: 21°F , -6°C
Humidity: 80%
Barometer: 30.04 inHg , 1017.3 hPa
Clouds: Clear
Visibility: 10 miles , 16 km
2021/01/18 09:53 KDTO 180953Z AUTO 00000KT 10SM CLR M03/M06 A3004 RMK AO2 SLP172 T10281056
 
KHQZ - Mesquite, Texas, USA
Distance from station: SSE 28mi, 44km
Updated: Mon, 18-Jan-2021 4:15am CST
Clear
Clear
 Wind from S
Wind: S 7 mph , 11 km/h
Temperature: 32°F , 0°C
Wind Chill: 25°F , -4°C
Dew Point: 27°F , -3°C
Humidity: 80%
Barometer: 30.06 inHg , 1017.9 hPa
Clouds: Clear
Visibility: 10 miles , 16 km
2021/01/18 10:15 KHQZ 181015Z AUTO 17006KT 10SM CLR 00/M03 A3006 RMK AO1 T00021035
KRBD - Dallas/Redbird, Texas, USA
Distance from station: SSW 30mi, 48km
Updated: Mon, 18-Jan-2021 3:53am CST
Clear
Clear
 Wind from S
Wind: S 6 mph , 9 km/h
Temperature: 43°F , 6°C
Wind Chill: 39°F , 4°C
Dew Point: 23°F , -5°C
Humidity: 46%
Barometer: 30.03 inHg , 1016.9 hPa
Clouds: Clear
Visibility: 10 miles , 16 km
2021/01/18 09:53 KRBD 180953Z AUTO 18005KT 10SM CLR 06/M05 A3003 RMK AO2 SLP169 T00561050
 
KGPM - Grand Prairie, Texas, USA
Distance from station: SSW 33mi, 53km
Updated: Mon, 18-Jan-2021 4:15am CST
Clear
Clear
 Wind from calm
Wind: Calm
Temperature: 41°F , 5°C
Dew Point: 25°F , -4°C
Humidity: 53%
Barometer: 30.05 inHg , 1017.6 hPa
Clouds: Clear
Visibility: 10 miles , 16 km
2021/01/18 10:15 KGPM 181015Z AUTO 00000KT 10SM CLR 05/M04 A3005 RMK AO2 T00461041
KAFW - Ft Worth/Allianc, Texas, USA
Distance from station: WSW 34mi, 55km
Updated: Mon, 18-Jan-2021 3:53am CST
Clear
Clear
 Wind from S
Wind: S 6 mph , 9 km/h
Temperature: 41°F , 5°C
Wind Chill: 37°F , 3°C
Dew Point: 25°F , -4°C
Humidity: 53%
Barometer: 30.03 inHg , 1016.9 hPa
Clouds: Clear
Visibility: 10 miles , 16 km
2021/01/18 09:53 KAFW 180953Z 19005KT 10SM CLR 05/M04 A3003 RMK AO2 SLP171 T00501044 $
 
KLNC - Lancaster, Texas, USA
Distance from station: S 36mi, 58km
Updated: Mon, 18-Jan-2021 4:15am CST
Clear
Clear
 Wind from calm
Wind: Calm
Temperature: 34°F , 1°C
Dew Point: 27°F , -3°C
Humidity: 75%
Barometer: 30.06 inHg , 1017.9 hPa
Clouds: Clear
Visibility: 10 miles , 16 km
2021/01/18 10:15 KLNC 181015Z AUTO 00000KT 10SM CLR 01/M03 A3006 RMK AO2 T00101035
KGKY - Arlington, Texas, USA
Distance from station: SSW 36mi, 59km
Updated: Mon, 18-Jan-2021 3:53am CST
Clear
Clear
 Wind from calm
Wind: Calm
Temperature: 36°F , 2°C
Dew Point: 25°F , -4°C
Humidity: 65%
Barometer: 30.04 inHg , 1017.3 hPa
Clouds: Clear
Visibility: 10 miles , 16 km
2021/01/18 09:53 KGKY 180953Z AUTO 00000KT 10SM CLR 02/M04 A3004 RMK AO2 SLP171 T00221039
 
KTRL - Terrell, Texas, USA
Distance from station: SE 39mi, 63km
Updated: Mon, 18-Jan-2021 3:53am CST
Clear
Clear
 Wind from calm
Wind: Calm
Temperature: 30°F , -1°C
Dew Point: 27°F , -3°C
Humidity: 86%
Barometer: 30.07 inHg , 1018.3 hPa
Clouds: Clear
Visibility: 10 miles , 16 km
2021/01/18 09:53 KTRL 180953Z AUTO 00000KT 10SM CLR M01/M03 A3007 RMK AO2 SLP182 T10061033
KGVT - Greenville/Major, Texas, USA
Distance from station: E 40mi, 64km
Updated: Mon, 18-Jan-2021 4:15am CST
Clear
Clear
 Wind from calm
Wind: Calm
Temperature: 34°F , 1°C
Dew Point: 28°F , -2°C
Humidity: 81%
Barometer: 30.05 inHg , 1017.6 hPa
Clouds: Clear
Visibility: 10 miles , 16 km
2021/01/18 10:15 KGVT 181015Z AUTO 00000KT 10SM CLR 01/M02 A3005 RMK AO2
 
KFTW - Fort Worth, Texas, USA
Distance from station: WSW 40mi, 65km
Updated: Mon, 18-Jan-2021 3:53am CST
Clear
Clear
 Wind from calm
Wind: Calm
Temperature: 37°F , 3°C
Dew Point: 27°F , -3°C
Humidity: 65%
Barometer: 30.03 inHg , 1016.9 hPa
Clouds: Clear
Visibility: 10 miles , 16 km
2021/01/18 09:53 KFTW 180953Z 00000KT 10SM CLR 03/M03 A3003 RMK AO2 SLP170 T00331033
KGYI - Sherman/Denison, Texas, USA
Distance from station: N 43mi, 69km
Updated: Mon, 18-Jan-2021 4:15am CST
Clear
Clear
 Wind from S
Wind: S 8 mph , 13 km/h
Temperature: 36°F , 2°C
Wind Chill: 30°F , -1°C
Dew Point: 23°F , -5°C
Humidity: 60%
Barometer: 30.04 inHg , 1017.3 hPa
Clouds: Clear
Visibility: 10 miles , 16 km
2021/01/18 10:15 KGYI 181015Z AUTO 18007KT 10SM CLR 02/M05 A3004 RMK AO2 T00171051
 
KNFW - Fort Worth Nas, Texas, USA
Distance from station: WSW 45mi, 73km
Updated: Mon, 18-Jan-2021 2:52am CST
NOT Current
Clear
Clear
 Wind from S
Wind: S 6 mph , 9 km/h
Temperature: 37°F , 3°C
Wind Chill: 32°F , 0°C
Dew Point: 27°F , -3°C
Humidity: 65%
Barometer: 30.05 inHg , 1017.6 hPa
Clouds: Clear
Visibility: 10 miles , 16 km
2021/01/18 08:52 KNFW 180852Z AUTO 18005KT 10SM CLR 03/M03 A3005 RMK AO2 SLP160 T00331033 56008 VISNO S $
KGLE - Gainesville, Texas, USA
Distance from station: NW 46mi, 74km
Updated: Mon, 18-Jan-2021 4:15am CST
Clear
Clear
 Wind from calm
Wind: Calm
Temperature: 32°F , 0°C
Dew Point: 21°F , -6°C
Humidity: 64%
Barometer: 30.04 inHg , 1017.3 hPa
Clouds: Clear
Visibility: 10 miles , 16 km
2021/01/18 10:15 KGLE 181015Z AUTO 00000KT 10SM CLR 00/M06 A3004 RMK AO2 T00001061
 
KJWY - Midlothian/Wax, Texas, USA
Distance from station: SSW 46mi, 74km
Updated: Mon, 18-Jan-2021 4:15am CST
Clear
Clear
 Wind from calm
Wind: Calm
Temperature: 37°F , 3°C
Dew Point: 27°F , -3°C
Humidity: 65%
Barometer: 30.05 inHg , 1017.6 hPa
Clouds: Clear
Visibility: 10 miles , 16 km
2021/01/18 10:15 KJWY 181015Z AUTO 00000KT 10SM CLR 03/M03 A3005 RMK AO2 T00291031
KFWS - Fort Worth/88d, Texas, USA
Distance from station: SW 49mi, 79km
Updated: Mon, 18-Jan-2021 4:15am CST
Clear
Clear
 Wind from calm
Wind: Calm
Temperature: 36°F , 2°C
Dew Point: 27°F , -3°C
Humidity: 70%
Barometer: 30.05 inHg , 1017.6 hPa
Clouds: Clear
Visibility: 10 miles , 16 km
2021/01/18 10:15 KFWS 181015Z AUTO 00000KT 10SM CLR 02/M03 A3005 RMK AO2 T00241035 PWINO